sensor_id;sensor_type;location;lat;lon;timestamp;pressure;altitude;pressure_sealevel;temperature;humidity
13434;BME280;6789;47.678;9.158;2022-12-18T00:02:46;97785.34;;;-2.37;100.00
13434;BME280;6789;47.678;9.158;2022-12-18T00:07:52;97793.22;;;-2.18;100.00
13434;BME280;6789;47.678;9.158;2022-12-18T00:13:00;97803.03;;;-2.12;100.00
13434;BME280;6789;47.678;9.158;2022-12-18T00:18:37;97797.56;;;-2.18;100.00
13434;BME280;6789;47.678;9.158;2022-12-18T00:23:45;97807.50;;;-2.14;100.00
13434;BME280;6789;47.678;9.158;2022-12-18T00:28:52;97805.00;;;-2.15;100.00
13434;BME280;6789;47.678;9.158;2022-12-18T00:34:01;97814.72;;;-2.08;100.00
13434;BME280;6789;47.678;9.158;2022-12-18T00:38:58;97829.50;;;-2.01;100.00
13434;BME280;6789;47.678;9.158;2022-12-18T00:44:06;97819.19;;;-1.90;99.81
13434;BME280;6789;47.678;9.158;2022-12-18T00:49:07;97830.75;;;-1.95;98.33
13434;BME280;6789;47.678;9.158;2022-12-18T00:54:14;97818.19;;;-1.98;97.95
13434;BME280;6789;47.678;9.158;2022-12-18T00:59:22;97819.81;;;-1.97;98.58
13434;BME280;6789;47.678;9.158;2022-12-18T01:04:32;97818.97;;;-1.98;97.87
13434;BME280;6789;47.678;9.158;2022-12-18T01:09:35;97846.66;;;-2.01;98.45
13434;BME280;6789;47.678;9.158;2022-12-18T01:14:41;97849.22;;;-1.90;98.22
13434;BME280;6789;47.678;9.158;2022-12-18T01:19:47;97842.00;;;-1.96;98.56
13434;BME280;6789;47.678;9.158;2022-12-18T01:24:55;97848.06;;;-1.97;98.51
13434;BME280;6789;47.678;9.158;2022-12-18T01:30:02;97854.06;;;-2.18;99.93
13434;BME280;6789;47.678;9.158;2022-12-18T01:35:05;97865.59;;;-2.13;99.77
13434;BME280;6789;47.678;9.158;2022-12-18T01:40:11;97855.72;;;-2.17;100.00
13434;BME280;6789;47.678;9.158;2022-12-18T01:45:36;97869.00;;;-2.13;100.00
13434;BME280;6789;47.678;9.158;2022-12-18T01:50:52;97862.22;;;-2.13;100.00
13434;BME280;6789;47.678;9.158;2022-12-18T01:56:00;97858.84;;;-2.03;100.00
13434;BME280;6789;47.678;9.158;2022-12-18T02:01:08;97869.22;;;-2.15;100.00
13434;BME280;6789;47.678;9.158;2022-12-18T02:06:36;97864.88;;;-1.93;100.00
13434;BME280;6789;47.678;9.158;2022-12-18T02:11:59;97863.41;;;-1.75;98.98
13434;BME280;6789;47.678;9.158;2022-12-18T02:17:50;97865.31;;;-1.88;99.38
13434;BME280;6789;47.678;9.158;2022-12-18T02:28:19;97850.88;;;-1.89;100.00
13434;BME280;6789;47.678;9.158;2022-12-18T02:33:31;97859.44;;;-1.68;100.00
13434;BME280;6789;47.678;9.158;2022-12-18T02:38:41;97856.63;;;-1.65;99.72
13434;BME280;6789;47.678;9.158;2022-12-18T02:43:55;97853.56;;;-1.59;99.37
13434;BME280;6789;47.678;9.158;2022-12-18T03:06:35;97877.97;;;-1.54;97.05
13434;BME280;6789;47.678;9.158;2022-12-18T03:11:37;97883.13;;;-1.65;97.65
13434;BME280;6789;47.678;9.158;2022-12-18T03:17:10;97872.72;;;-1.63;98.29
13434;BME280;6789;47.678;9.158;2022-12-18T03:22:07;97875.53;;;-1.55;98.55
13434;BME280;6789;47.678;9.158;2022-12-18T03:27:06;97879.94;;;-1.46;98.48
13434;BME280;6789;47.678;9.158;2022-12-18T03:32:09;97870.16;;;-1.52;98.51
13434;BME280;6789;47.678;9.158;2022-12-18T03:37:15;97870.59;;;-1.47;98.37
13434;BME280;6789;47.678;9.158;2022-12-18T03:48:16;97874.91;;;-1.48;97.88
13434;BME280;6789;47.678;9.158;2022-12-18T03:53:23;97885.25;;;-1.39;97.58
13434;BME280;6789;47.678;9.158;2022-12-18T03:58:22;97890.03;;;-1.34;97.34
13434;BME280;6789;47.678;9.158;2022-12-18T04:03:16;97900.13;;;-1.42;97.03
13434;BME280;6789;47.678;9.158;2022-12-18T04:08:16;97891.03;;;-1.46;97.32
13434;BME280;6789;47.678;9.158;2022-12-18T04:13:09;97902.69;;;-1.42;97.06
13434;BME280;6789;47.678;9.158;2022-12-18T04:18:03;97905.66;;;-1.46;97.16
13434;BME280;6789;47.678;9.158;2022-12-18T04:22:55;97915.44;;;-1.41;97.07
13434;BME280;6789;47.678;9.158;2022-12-18T04:27:46;97901.88;;;-1.42;97.12
13434;BME280;6789;47.678;9.158;2022-12-18T04:32:38;97914.75;;;-1.42;97.26
13434;BME280;6789;47.678;9.158;2022-12-18T04:37:30;97914.88;;;-1.44;97.57
13434;BME280;6789;47.678;9.158;2022-12-18T04:42:22;97921.78;;;-1.55;97.83
13434;BME280;6789;47.678;9.158;2022-12-18T04:47:13;97920.38;;;-1.48;97.55
13434;BME280;6789;47.678;9.158;2022-12-18T04:52:08;97924.00;;;-1.51;96.21
13434;BME280;6789;47.678;9.158;2022-12-18T04:57:00;97923.41;;;-1.43;96.63
13434;BME280;6789;47.678;9.158;2022-12-18T05:01:51;97925.47;;;-1.38;96.49
13434;BME280;6789;47.678;9.158;2022-12-18T05:06:45;97926.88;;;-1.34;97.08
13434;BME280;6789;47.678;9.158;2022-12-18T05:11:39;97933.63;;;-1.33;96.29
13434;BME280;6789;47.678;9.158;2022-12-18T05:16:33;97937.84;;;-1.32;96.28
13434;BME280;6789;47.678;9.158;2022-12-18T05:21:27;97932.13;;;-1.35;97.10
13434;BME280;6789;47.678;9.158;2022-12-18T05:26:33;97942.41;;;-1.24;97.16
13434;BME280;6789;47.678;9.158;2022-12-18T05:31:25;97939.94;;;-1.26;96.57
13434;BME280;6789;47.678;9.158;2022-12-18T05:36:31;97952.44;;;-1.21;96.74
13434;BME280;6789;47.678;9.158;2022-12-18T05:41:37;97946.72;;;-1.25;96.74
13434;BME280;6789;47.678;9.158;2022-12-18T05:46:40;97955.00;;;-1.21;97.24
13434;BME280;6789;47.678;9.158;2022-12-18T05:51:34;97955.81;;;-1.21;97.50
13434;BME280;6789;47.678;9.158;2022-12-18T05:56:27;97958.72;;;-1.14;97.55
13434;BME280;6789;47.678;9.158;2022-12-18T06:01:25;97952.88;;;-1.16;97.89
13434;BME280;6789;47.678;9.158;2022-12-18T06:06:26;97954.19;;;-1.22;98.01
13434;BME280;6789;47.678;9.158;2022-12-18T06:11:27;97940.38;;;-1.21;98.21
13434;BME280;6789;47.678;9.158;2022-12-18T06:16:21;97952.22;;;-1.18;98.13
13434;BME280;6789;47.678;9.158;2022-12-18T06:21:28;97946.31;;;-1.09;98.02
13434;BME280;6789;47.678;9.158;2022-12-18T06:26:38;97954.97;;;-1.10;98.28
13434;BME280;6789;47.678;9.158;2022-12-18T06:31:44;97963.38;;;-1.08;96.96
13434;BME280;6789;47.678;9.158;2022-12-18T06:36:38;97965.09;;;-1.29;96.59
13434;BME280;6789;47.678;9.158;2022-12-18T06:41:43;97973.81;;;-1.21;97.39
13434;BME280;6789;47.678;9.158;2022-12-18T06:46:36;97979.88;;;-1.11;97.25
13434;BME280;6789;47.678;9.158;2022-12-18T06:51:30;97978.38;;;-1.13;96.84
13434;BME280;6789;47.678;9.158;2022-12-18T06:56:36;97993.91;;;-1.15;98.12
13434;BME280;6789;47.678;9.158;2022-12-18T07:01:28;97998.81;;;-1.12;98.15
13434;BME280;6789;47.678;9.158;2022-12-18T07:06:24;98002.56;;;-1.05;97.76
13434;BME280;6789;47.678;9.158;2022-12-18T07:11:17;98007.22;;;-0.99;97.32
13434;BME280;6789;47.678;9.158;2022-12-18T07:16:17;98014.72;;;-1.07;97.61
13434;BME280;6789;47.678;9.158;2022-12-18T07:21:19;98021.53;;;-1.17;98.41
13434;BME280;6789;47.678;9.158;2022-12-18T07:26:15;98023.97;;;-1.15;98.73
13434;BME280;6789;47.678;9.158;2022-12-18T07:31:22;98034.53;;;-1.18;98.35
13434;BME280;6789;47.678;9.158;2022-12-18T07:36:15;98035.34;;;-1.18;97.84
13434;BME280;6789;47.678;9.158;2022-12-18T07:41:13;98046.06;;;-1.13;97.87
13434;BME280;6789;47.678;9.158;2022-12-18T07:46:19;98047.34;;;-1.07;97.63
13434;BME280;6789;47.678;9.158;2022-12-18T07:51:12;98035.69;;;-1.22;98.81
13434;BME280;6789;47.678;9.158;2022-12-18T07:56:19;98037.78;;;-1.16;99.07
13434;BME280;6789;47.678;9.158;2022-12-18T08:01:22;98036.34;;;-1.09;99.13
13434;BME280;6789;47.678;9.158;2022-12-18T08:06:14;98039.59;;;-0.96;98.74
13434;BME280;6789;47.678;9.158;2022-12-18T08:11:08;98052.47;;;-0.96;97.77
13434;BME280;6789;47.678;9.158;2022-12-18T08:16:05;98053.75;;;-1.02;97.10
13434;BME280;6789;47.678;9.158;2022-12-18T08:21:18;98054.44;;;-0.89;96.90
13434;BME280;6789;47.678;9.158;2022-12-18T08:26:13;98059.22;;;-0.84;97.28
13434;BME280;6789;47.678;9.158;2022-12-18T08:31:06;98058.16;;;-0.82;96.72
13434;BME280;6789;47.678;9.158;2022-12-18T08:35:59;98057.56;;;-0.74;97.15
13434;BME280;6789;47.678;9.158;2022-12-18T08:41:09;98051.78;;;-0.67;97.09
13434;BME280;6789;47.678;9.158;2022-12-18T08:46:02;98046.16;;;-0.61;96.70
13434;BME280;6789;47.678;9.158;2022-12-18T08:51:00;98060.75;;;-0.62;97.32
13434;BME280;6789;47.678;9.158;2022-12-18T08:55:56;98065.91;;;-0.51;96.44
13434;BME280;6789;47.678;9.158;2022-12-18T09:00:49;98055.47;;;-0.49;96.37
13434;BME280;6789;47.678;9.158;2022-12-18T09:05:41;98071.44;;;-0.35;94.86
13434;BME280;6789;47.678;9.158;2022-12-18T09:10:40;98059.84;;;-0.40;95.31
13434;BME280;6789;47.678;9.158;2022-12-18T09:15:34;98051.81;;;-0.26;94.96
13434;BME280;6789;47.678;9.158;2022-12-18T09:20:26;98052.25;;;-0.21;94.98
13434;BME280;6789;47.678;9.158;2022-12-18T09:25:20;98052.75;;;-0.27;94.22
13434;BME280;6789;47.678;9.158;2022-12-18T09:30:26;98036.56;;;-0.18;94.94
13434;BME280;6789;47.678;9.158;2022-12-18T09:35:25;98037.13;;;-0.15;94.52
13434;BME280;6789;47.678;9.158;2022-12-18T09:40:29;98045.63;;;-0.03;94.06
13434;BME280;6789;47.678;9.158;2022-12-18T09:45:25;98049.19;;;0.05;94.35
13434;BME280;6789;47.678;9.158;2022-12-18T09:50:35;98053.50;;;0.04;94.27
13434;BME280;6789;47.678;9.158;2022-12-18T09:55:40;98044.56;;;0.29;92.68
13434;BME280;6789;47.678;9.158;2022-12-18T10:00:36;98049.41;;;0.22;92.70
13434;BME280;6789;47.678;9.158;2022-12-18T10:06:18;98049.72;;;0.29;92.50
13434;BME280;6789;47.678;9.158;2022-12-18T10:11:27;98051.56;;;0.17;93.16
13434;BME280;6789;47.678;9.158;2022-12-18T10:27:09;98060.84;;;0.29;92.53
13434;BME280;6789;47.678;9.158;2022-12-18T10:32:12;98047.84;;;0.31;91.58
13434;BME280;6789;47.678;9.158;2022-12-18T10:37:18;98052.34;;;0.38;91.76
13434;BME280;6789;47.678;9.158;2022-12-18T10:42:19;98054.97;;;0.48;91.02
13434;BME280;6789;47.678;9.158;2022-12-18T10:47:18;98064.38;;;0.58;90.96
13434;BME280;6789;47.678;9.158;2022-12-18T10:52:27;98070.72;;;0.54;91.06
13434;BME280;6789;47.678;9.158;2022-12-18T10:57:40;98066.00;;;0.59;90.43
13434;BME280;6789;47.678;9.158;2022-12-18T11:02:47;98055.84;;;0.67;89.64
13434;BME280;6789;47.678;9.158;2022-12-18T11:07:53;98049.34;;;0.72;89.44
13434;BME280;6789;47.678;9.158;2022-12-18T11:12:56;98064.09;;;0.61;88.80
13434;BME280;6789;47.678;9.158;2022-12-18T11:18:20;98049.72;;;0.59;89.50
13434;BME280;6789;47.678;9.158;2022-12-18T11:23:14;98040.00;;;0.42;89.68
13434;BME280;6789;47.678;9.158;2022-12-18T11:28:40;98037.78;;;0.67;89.02
13434;BME280;6789;47.678;9.158;2022-12-18T11:45:30;98032.19;;;0.62;88.20
13434;BME280;6789;47.678;9.158;2022-12-18T11:51:00;98028.56;;;0.74;89.50
13434;BME280;6789;47.678;9.158;2022-12-18T11:56:35;98020.38;;;0.60;89.08
13434;BME280;6789;47.678;9.158;2022-12-18T12:01:40;97999.59;;;0.61;89.11
13434;BME280;6789;47.678;9.158;2022-12-18T12:06:55;98008.97;;;0.62;88.66
13434;BME280;6789;47.678;9.158;2022-12-18T12:18:41;97991.16;;;0.59;89.14
13434;BME280;6789;47.678;9.158;2022-12-18T12:40:05;97982.06;;;0.55;89.59
13434;BME280;6789;47.678;9.158;2022-12-18T12:45:34;97972.06;;;0.71;88.45
13434;BME280;6789;47.678;9.158;2022-12-18T12:50:34;97971.00;;;0.73;87.84
13434;BME280;6789;47.678;9.158;2022-12-18T12:55:29;97966.22;;;0.69;88.53
13434;BME280;6789;47.678;9.158;2022-12-18T13:06:48;97971.38;;;0.69;88.50
13434;BME280;6789;47.678;9.158;2022-12-18T13:11:47;97976.13;;;0.64;89.77
13434;BME280;6789;47.678;9.158;2022-12-18T13:17:30;97973.19;;;0.39;89.88
13434;BME280;6789;47.678;9.158;2022-12-18T13:22:45;97961.97;;;0.49;89.55
13434;BME280;6789;47.678;9.158;2022-12-18T13:28:13;97966.34;;;0.58;90.43
13434;BME280;6789;47.678;9.158;2022-12-18T13:38:37;97990.91;;;0.62;91.00
13434;BME280;6789;47.678;9.158;2022-12-18T13:43:44;97983.31;;;0.61;89.74
13434;BME280;6789;47.678;9.158;2022-12-18T13:48:59;97983.56;;;0.58;90.82
13434;BME280;6789;47.678;9.158;2022-12-18T13:53:58;97973.03;;;0.70;90.68
13434;BME280;6789;47.678;9.158;2022-12-18T13:59:13;97971.25;;;0.70;90.31
13434;BME280;6789;47.678;9.158;2022-12-18T14:04:21;97969.97;;;0.46;91.09
13434;BME280;6789;47.678;9.158;2022-12-18T14:09:34;97971.31;;;0.41;91.78
13434;BME280;6789;47.678;9.158;2022-12-18T14:14:47;97980.81;;;0.40;91.28
13434;BME280;6789;47.678;9.158;2022-12-18T14:19:49;97979.19;;;0.39;91.41
13434;BME280;6789;47.678;9.158;2022-12-18T14:24:47;97991.78;;;0.33;92.26
13434;BME280;6789;47.678;9.158;2022-12-18T14:29:56;97989.16;;;0.23;92.01
13434;BME280;6789;47.678;9.158;2022-12-18T14:34:53;97987.66;;;0.21;92.89
13434;BME280;6789;47.678;9.158;2022-12-18T14:39:59;97989.38;;;0.11;93.85
13434;BME280;6789;47.678;9.158;2022-12-18T14:50:39;97988.03;;;0.16;93.78
13434;BME280;6789;47.678;9.158;2022-12-18T14:55:33;97993.09;;;-0.03;94.69
13434;BME280;6789;47.678;9.158;2022-12-18T15:00:28;97997.75;;;0.03;94.69
13434;BME280;6789;47.678;9.158;2022-12-18T15:05:35;97999.53;;;0.03;94.94
13434;BME280;6789;47.678;9.158;2022-12-18T15:10:47;97990.16;;;0.02;94.84
13434;BME280;6789;47.678;9.158;2022-12-18T15:20:59;97997.22;;;-0.20;96.07
13434;BME280;6789;47.678;9.158;2022-12-18T15:26:02;97989.25;;;-0.17;95.94
13434;BME280;6789;47.678;9.158;2022-12-18T15:36:18;98004.72;;;-0.17;96.15
13434;BME280;6789;47.678;9.158;2022-12-18T15:41:24;98002.63;;;-0.23;96.68
13434;BME280;6789;47.678;9.158;2022-12-18T15:46:21;97994.22;;;-0.25;96.37
13434;BME280;6789;47.678;9.158;2022-12-18T15:51:38;97990.19;;;-0.39;97.90
13434;BME280;6789;47.678;9.158;2022-12-18T15:56:44;97985.63;;;-0.35;98.02
13434;BME280;6789;47.678;9.158;2022-12-18T16:02:17;97991.34;;;-0.32;97.87
13434;BME280;6789;47.678;9.158;2022-12-18T16:07:23;97988.28;;;-0.37;97.78
13434;BME280;6789;47.678;9.158;2022-12-18T16:12:31;97989.56;;;-0.31;97.57
13434;BME280;6789;47.678;9.158;2022-12-18T16:17:43;97983.97;;;-0.36;97.89
13434;BME280;6789;47.678;9.158;2022-12-18T16:22:50;97991.28;;;-0.41;98.34
13434;BME280;6789;47.678;9.158;2022-12-18T16:27:42;97987.72;;;-0.40;99.05
13434;BME280;6789;47.678;9.158;2022-12-18T16:32:49;97982.53;;;-0.29;97.49
13434;BME280;6789;47.678;9.158;2022-12-18T16:37:48;97987.88;;;-0.42;98.58
13434;BME280;6789;47.678;9.158;2022-12-18T16:42:44;97988.56;;;-0.40;99.48
13434;BME280;6789;47.678;9.158;2022-12-18T16:47:50;97981.53;;;-0.38;98.84
13434;BME280;6789;47.678;9.158;2022-12-18T16:52:56;97982.03;;;-0.44;98.93
13434;BME280;6789;47.678;9.158;2022-12-18T16:57:55;97976.00;;;-0.54;98.89
13434;BME280;6789;47.678;9.158;2022-12-18T17:02:54;97977.41;;;-0.50;99.80
13434;BME280;6789;47.678;9.158;2022-12-18T17:08:00;97984.72;;;-0.45;100.00
13434;BME280;6789;47.678;9.158;2022-12-18T17:13:06;97977.56;;;-0.42;100.00
13434;BME280;6789;47.678;9.158;2022-12-18T17:18:11;97964.75;;;-0.53;99.54
13434;BME280;6789;47.678;9.158;2022-12-18T17:23:17;97958.81;;;-0.53;100.00
13434;BME280;6789;47.678;9.158;2022-12-18T17:28:25;97971.16;;;-0.47;100.00
13434;BME280;6789;47.678;9.158;2022-12-18T17:33:34;97964.75;;;-0.53;100.00
13434;BME280;6789;47.678;9.158;2022-12-18T17:38:27;97973.03;;;-0.49;100.00
13434;BME280;6789;47.678;9.158;2022-12-18T17:43:21;97954.38;;;-0.42;100.00
13434;BME280;6789;47.678;9.158;2022-12-18T17:48:27;97960.47;;;-0.43;100.00
13434;BME280;6789;47.678;9.158;2022-12-18T17:53:18;97958.47;;;-0.39;100.00
13434;BME280;6789;47.678;9.158;2022-12-18T17:58:24;97941.88;;;-0.46;100.00
13434;BME280;6789;47.678;9.158;2022-12-18T18:03:32;97947.53;;;-0.32;100.00
13434;BME280;6789;47.678;9.158;2022-12-18T18:08:27;97939.81;;;-0.32;100.00
13434;BME280;6789;47.678;9.158;2022-12-18T18:13:33;97943.38;;;-0.23;100.00
13434;BME280;6789;47.678;9.158;2022-12-18T18:19:02;97943.00;;;-0.19;100.00
13434;BME280;6789;47.678;9.158;2022-12-18T18:24:13;97945.91;;;-0.03;100.00
13434;BME280;6789;47.678;9.158;2022-12-18T18:29:23;97945.34;;;-0.06;100.00
13434;BME280;6789;47.678;9.158;2022-12-18T18:34:31;97945.88;;;-0.12;100.00
13434;BME280;6789;47.678;9.158;2022-12-18T18:39:31;97953.22;;;-0.08;100.00
13434;BME280;6789;47.678;9.158;2022-12-18T18:44:27;97954.91;;;0.02;100.00
13434;BME280;6789;47.678;9.158;2022-12-18T18:49:27;97950.22;;;-0.13;100.00
13434;BME280;6789;47.678;9.158;2022-12-18T18:54:32;97956.94;;;-0.21;100.00
13434;BME280;6789;47.678;9.158;2022-12-18T18:59:52;97947.97;;;-0.27;100.00
13434;BME280;6789;47.678;9.158;2022-12-18T19:04:45;97942.88;;;-0.17;100.00
13434;BME280;6789;47.678;9.158;2022-12-18T19:09:52;97954.28;;;-0.10;100.00
13434;BME280;6789;47.678;9.158;2022-12-18T19:14:48;97946.00;;;-0.14;100.00
13434;BME280;6789;47.678;9.158;2022-12-18T19:19:45;97952.13;;;-0.05;100.00
13434;BME280;6789;47.678;9.158;2022-12-18T19:24:51;97926.38;;;-0.05;100.00
13434;BME280;6789;47.678;9.158;2022-12-18T19:29:56;97926.06;;;-0.12;100.00
13434;BME280;6789;47.678;9.158;2022-12-18T19:34:52;97938.56;;;-0.07;100.00
13434;BME280;6789;47.678;9.158;2022-12-18T19:39:58;97955.41;;;-0.03;100.00
13434;BME280;6789;47.678;9.158;2022-12-18T19:44:56;97952.94;;;-0.05;100.00
13434;BME280;6789;47.678;9.158;2022-12-18T19:50:08;97934.09;;;-0.05;100.00
13434;BME280;6789;47.678;9.158;2022-12-18T19:55:05;97926.09;;;-0.03;100.00
13434;BME280;6789;47.678;9.158;2022-12-18T20:00:01;97931.00;;;0.00;100.00
13434;BME280;6789;47.678;9.158;2022-12-18T20:05:11;97929.09;;;-0.07;100.00
13434;BME280;6789;47.678;9.158;2022-12-18T20:10:18;97909.56;;;0.00;100.00
13434;BME280;6789;47.678;9.158;2022-12-18T20:15:26;97909.06;;;0.06;100.00
13434;BME280;6789;47.678;9.158;2022-12-18T20:20:23;97906.59;;;0.04;100.00
13434;BME280;6789;47.678;9.158;2022-12-18T20:25:16;97902.81;;;0.08;100.00
13434;BME280;6789;47.678;9.158;2022-12-18T20:30:24;97901.59;;;0.12;100.00
13434;BME280;6789;47.678;9.158;2022-12-18T20:35:31;97898.06;;;0.13;100.00
13434;BME280;6789;47.678;9.158;2022-12-18T20:40:27;97882.09;;;0.19;100.00
13434;BME280;6789;47.678;9.158;2022-12-18T20:45:32;97909.88;;;0.16;100.00
13434;BME280;6789;47.678;9.158;2022-12-18T20:50:38;97910.16;;;0.22;100.00
13434;BME280;6789;47.678;9.158;2022-12-18T20:55:34;97902.84;;;0.18;100.00
13434;BME280;6789;47.678;9.158;2022-12-18T21:00:28;97904.72;;;0.16;100.00
13434;BME280;6789;47.678;9.158;2022-12-18T21:05:33;97894.66;;;0.13;100.00
13434;BME280;6789;47.678;9.158;2022-12-18T21:10:39;97880.59;;;0.17;100.00
13434;BME280;6789;47.678;9.158;2022-12-18T21:15:46;97888.72;;;0.12;100.00
13434;BME280;6789;47.678;9.158;2022-12-18T21:20:47;97889.44;;;0.24;100.00
13434;BME280;6789;47.678;9.158;2022-12-18T21:25:53;97883.31;;;0.15;100.00
13434;BME280;6789;47.678;9.158;2022-12-18T21:30:46;97890.59;;;0.10;100.00
13434;BME280;6789;47.678;9.158;2022-12-18T21:35:52;97878.53;;;0.11;100.00
13434;BME280;6789;47.678;9.158;2022-12-18T21:40:44;97873.41;;;0.20;100.00
13434;BME280;6789;47.678;9.158;2022-12-18T21:45:36;97882.19;;;0.08;100.00
13434;BME280;6789;47.678;9.158;2022-12-18T21:50:29;97884.38;;;0.22;100.00
13434;BME280;6789;47.678;9.158;2022-12-18T21:55:21;97889.00;;;0.28;100.00
13434;BME280;6789;47.678;9.158;2022-12-18T22:00:27;97890.53;;;0.31;100.00
13434;BME280;6789;47.678;9.158;2022-12-18T22:05:21;97882.38;;;0.35;100.00
13434;BME280;6789;47.678;9.158;2022-12-18T22:10:14;97894.06;;;0.30;100.00
13434;BME280;6789;47.678;9.158;2022-12-18T22:15:14;97873.53;;;0.28;100.00
13434;BME280;6789;47.678;9.158;2022-12-18T22:20:12;97875.84;;;0.22;100.00
13434;BME280;6789;47.678;9.158;2022-12-18T22:25:05;97865.38;;;0.23;100.00
13434;BME280;6789;47.678;9.158;2022-12-18T22:30:11;97879.53;;;0.29;100.00
13434;BME280;6789;47.678;9.158;2022-12-18T22:35:18;97882.50;;;0.24;100.00
13434;BME280;6789;47.678;9.158;2022-12-18T22:40:20;97870.56;;;0.33;100.00
13434;BME280;6789;47.678;9.158;2022-12-18T22:45:16;97876.28;;;0.36;100.00
13434;BME280;6789;47.678;9.158;2022-12-18T22:50:22;97866.25;;;0.43;100.00
13434;BME280;6789;47.678;9.158;2022-12-18T22:55:15;97873.16;;;0.42;100.00
13434;BME280;6789;47.678;9.158;2022-12-18T23:00:07;97865.41;;;0.42;100.00
13434;BME280;6789;47.678;9.158;2022-12-18T23:05:00;97865.81;;;0.47;100.00
13434;BME280;6789;47.678;9.158;2022-12-18T23:10:08;97872.75;;;0.47;100.00
13434;BME280;6789;47.678;9.158;2022-12-18T23:15:13;97860.13;;;0.53;100.00
13434;BME280;6789;47.678;9.158;2022-12-18T23:20:21;97839.22;;;0.56;100.00
13434;BME280;6789;47.678;9.158;2022-12-18T23:25:27;97852.38;;;0.53;100.00
13434;BME280;6789;47.678;9.158;2022-12-18T23:30:19;97853.47;;;0.51;100.00
13434;BME280;6789;47.678;9.158;2022-12-18T23:35:12;97875.19;;;0.48;100.00
13434;BME280;6789;47.678;9.158;2022-12-18T23:40:18;97861.50;;;0.38;100.00
13434;BME280;6789;47.678;9.158;2022-12-18T23:45:20;97861.63;;;0.37;100.00
13434;BME280;6789;47.678;9.158;2022-12-18T23:50:12;97859.16;;;0.35;100.00
13434;BME280;6789;47.678;9.158;2022-12-18T23:55:05;97868.00;;;0.42;100.00
